createdAt,value
2018-09-05T00:00:44.314Z,19.20
2018-09-05T00:03:12.360Z,19.10
2018-09-05T00:05:41.736Z,19.10
2018-09-05T00:08:09.785Z,19.00
2018-09-05T00:10:37.845Z,19.00
2018-09-05T00:13:44.465Z,19.00
2018-09-05T00:16:12.602Z,19.00
2018-09-05T00:18:40.638Z,19.00
2018-09-05T00:21:08.699Z,18.90
2018-09-05T00:23:36.758Z,18.90
2018-09-05T00:26:05.250Z,18.90
2018-09-05T00:28:33.288Z,18.90
2018-09-05T00:31:01.441Z,18.90
2018-09-05T00:33:29.506Z,18.90
2018-09-05T00:35:57.720Z,18.90
2018-09-05T00:38:25.768Z,18.90
2018-09-05T00:40:53.833Z,19.00
2018-09-05T00:43:22.193Z,19.00
2018-09-05T00:45:50.254Z,19.00
2018-09-05T00:48:18.468Z,19.00
2018-09-05T00:50:46.529Z,18.90
2018-09-05T00:53:14.589Z,19.00
2018-09-05T00:55:42.713Z,18.90
2018-09-05T00:58:10.772Z,18.90
2018-09-05T01:00:38.821Z,19.00
2018-09-05T01:03:06.876Z,19.00
2018-09-05T01:05:34.931Z,19.00
2018-09-05T01:08:02.995Z,19.00
2018-09-05T01:10:31.080Z,19.00
2018-09-05T01:12:59.129Z,18.90
2018-09-05T01:15:27.617Z,18.90
2018-09-05T01:17:55.672Z,18.90
2018-09-05T01:20:23.795Z,18.90
2018-09-05T01:22:51.853Z,18.90
2018-09-05T01:25:19.900Z,18.80
2018-09-05T01:27:48.088Z,18.80
2018-09-05T01:30:16.121Z,18.70
2018-09-05T01:32:44.192Z,18.70
2018-09-05T01:35:12.246Z,18.60
2018-09-05T01:37:40.356Z,18.50
2018-09-05T01:40:08.507Z,18.30
2018-09-05T01:42:36.549Z,18.20
2018-09-05T01:45:05.226Z,18.10
2018-09-05T01:47:33.294Z,18.00
2018-09-05T01:50:01.404Z,18.00
2018-09-05T01:52:29.457Z,18.00
2018-09-05T01:54:57.528Z,18.00
2018-09-05T01:57:25.564Z,18.00
2018-09-05T01:59:53.713Z,18.00
2018-09-05T02:02:21.813Z,17.90
2018-09-05T02:04:49.858Z,18.00
2018-09-05T02:07:17.921Z,18.00
2018-09-05T02:09:45.969Z,18.00
2018-09-05T02:12:14.130Z,18.00
2018-09-05T02:14:42.206Z,18.00
2018-09-05T02:17:10.529Z,18.00
2018-09-05T02:19:38.594Z,18.00
2018-09-05T02:22:06.652Z,18.00
2018-09-05T02:24:34.750Z,17.90
2018-09-05T02:27:02.837Z,17.90
2018-09-05T02:29:30.868Z,17.90
2018-09-05T02:31:59.318Z,17.90
2018-09-05T02:34:27.736Z,17.80
2018-09-05T02:36:55.896Z,17.80
2018-09-05T02:39:23.928Z,17.70
2018-09-05T02:41:52.035Z,17.70
2018-09-05T02:44:21.498Z,17.60
2018-09-05T02:46:49.893Z,17.60
2018-09-05T02:49:18.292Z,17.50
2018-09-05T02:51:46.905Z,17.50
2018-09-05T02:54:14.997Z,17.50
2018-09-05T02:56:43.130Z,17.50
2018-09-05T02:59:11.214Z,17.50
2018-09-05T03:01:39.240Z,17.50
2018-09-05T03:04:07.353Z,17.50
2018-09-05T03:06:35.402Z,17.50
2018-09-05T03:09:04.784Z,17.50
2018-09-05T03:11:32.872Z,17.50
2018-09-05T03:14:00.916Z,17.50
2018-09-05T03:16:29.428Z,17.60
2018-09-05T03:18:57.477Z,17.60
2018-09-05T03:21:25.577Z,17.60
2018-09-05T03:23:53.640Z,17.60
2018-09-05T03:26:21.768Z,17.60
2018-09-05T03:28:49.821Z,17.60
2018-09-05T03:31:17.994Z,17.50
2018-09-05T03:33:46.052Z,17.50
2018-09-05T03:36:14.101Z,17.50
2018-09-05T03:38:42.157Z,17.50
2018-09-05T03:41:10.422Z,17.50
2018-09-05T03:43:38.475Z,17.50
2018-09-05T03:46:06.567Z,17.50
2018-09-05T03:48:34.657Z,17.50
2018-09-05T03:51:03.142Z,17.40
2018-09-05T03:53:31.185Z,17.40
2018-09-05T03:55:59.229Z,17.40
2018-09-05T03:58:27.301Z,17.30
2018-09-05T04:00:55.771Z,17.30
2018-09-05T04:03:23.828Z,17.30
2018-09-05T04:05:51.944Z,17.20
2018-09-05T04:08:20.004Z,17.20
2018-09-05T04:10:48.057Z,17.10
2018-09-05T04:13:16.116Z,17.10
2018-09-05T04:15:44.159Z,17.10
2018-09-05T04:18:12.389Z,17.10
2018-09-05T04:20:40.439Z,17.10
2018-09-05T04:23:08.502Z,17.00
2018-09-05T04:25:36.552Z,17.00
2018-09-05T04:28:05.024Z,17.00
2018-09-05T04:30:33.073Z,16.90
2018-09-05T04:33:01.157Z,16.90
2018-09-05T04:35:29.273Z,16.90
2018-09-05T04:37:57.372Z,16.90
2018-09-05T04:40:25.404Z,16.90
2018-09-05T04:42:53.460Z,16.80
2018-09-05T04:45:21.544Z,16.80
2018-09-05T04:47:49.602Z,16.80
2018-09-05T04:50:17.693Z,16.70
2018-09-05T04:52:45.751Z,16.60
2018-09-05T04:55:13.780Z,16.60
2018-09-05T04:57:41.825Z,16.50
2018-09-05T05:00:09.929Z,16.50
2018-09-05T05:02:38.014Z,16.40
2018-09-05T05:05:06.060Z,16.40
2018-09-05T05:07:34.115Z,16.40
2018-09-05T05:10:02.180Z,16.40
2018-09-05T05:12:30.260Z,16.40
2018-09-05T05:14:58.349Z,16.40
2018-09-05T05:17:26.401Z,16.40
2018-09-05T05:19:54.469Z,16.40
2018-09-05T05:22:22.899Z,16.50
2018-09-05T05:24:50.944Z,16.60
2018-09-05T05:27:18.994Z,16.60
2018-09-05T05:29:47.111Z,16.70
2018-09-05T05:32:15.161Z,16.80
2018-09-05T05:34:43.244Z,16.90
2018-09-05T05:37:11.293Z,16.90
2018-09-05T05:39:39.386Z,17.00
2018-09-05T05:42:07.417Z,17.10
2018-09-05T05:44:35.537Z,17.20
2018-09-05T05:47:03.693Z,17.30
2018-09-05T05:49:31.736Z,17.40
2018-09-05T05:51:59.792Z,17.50
2018-09-05T05:54:27.853Z,17.70
2018-09-05T05:56:56.009Z,17.80
2018-09-05T05:59:24.063Z,18.00
2018-09-05T06:01:52.194Z,18.20
2018-09-05T06:04:20.255Z,18.30
2018-09-05T06:06:48.424Z,18.40
2018-09-05T06:09:16.480Z,18.50
2018-09-05T06:11:44.590Z,18.50
2018-09-05T06:14:12.675Z,18.70
2018-09-05T06:16:40.709Z,18.80
2018-09-05T06:19:08.785Z,18.90
2018-09-05T06:21:36.856Z,19.10
2018-09-05T06:24:04.994Z,19.20
2018-09-05T06:26:32.981Z,19.40
2018-09-05T06:29:01.036Z,19.50
2018-09-05T06:31:29.101Z,19.70
2018-09-05T06:33:57.152Z,19.90
2018-09-05T06:36:25.571Z,20.20
2018-09-05T06:38:53.725Z,20.40
2018-09-05T06:41:21.745Z,20.70
2018-09-05T06:43:49.805Z,21.10
2018-09-05T06:48:52.300Z,22.80
2018-09-05T06:51:20.393Z,23.90
2018-09-05T06:53:48.429Z,25.00
2018-09-05T06:56:16.505Z,26.10
2018-09-05T06:58:44.559Z,27.20
2018-09-05T07:01:12.630Z,28.10
2018-09-05T07:03:40.847Z,29.10
2018-09-05T07:06:08.743Z,30.00
2018-09-05T07:08:36.799Z,30.70
2018-09-05T07:11:04.957Z,31.40
2018-09-05T07:13:33.017Z,32.10
2018-09-05T07:16:01.090Z,32.80
2018-09-05T07:18:29.139Z,33.50
2018-09-05T07:21:05.683Z,34.10
2018-09-05T07:23:25.269Z,34.70
2018-09-05T07:25:53.708Z,35.10
2018-09-05T07:28:21.941Z,35.60
2018-09-05T07:30:50.170Z,36.20
2018-09-05T07:33:18.199Z,36.50
2018-09-05T07:35:46.358Z,36.90
2018-09-05T07:38:14.491Z,37.50
2018-09-05T07:40:42.545Z,38.00
2018-09-05T07:43:10.596Z,38.40
2018-09-05T07:45:38.670Z,38.80
2018-09-05T07:48:06.932Z,39.20
2018-09-05T07:50:35.040Z,39.60
2018-09-05T07:53:03.045Z,40.00
2018-09-05T07:55:31.100Z,40.20
2018-09-05T07:58:00.098Z,40.60
2018-09-05T08:00:28.148Z,41.10
2018-09-05T08:02:56.198Z,41.20
2018-09-05T08:05:24.265Z,41.60
2018-09-05T08:07:52.436Z,41.80
2018-09-05T08:10:21.077Z,42.10
2018-09-05T08:12:49.117Z,42.20
2018-09-05T08:15:17.168Z,42.80
2018-09-05T08:17:45.230Z,43.30
2018-09-05T08:20:13.276Z,43.70
2018-09-05T08:22:47.989Z,44.20
2018-09-05T08:25:16.414Z,44.40
2018-09-05T08:27:44.549Z,44.60
2018-09-05T08:30:12.757Z,44.80
2018-09-05T08:32:40.766Z,45.20
2018-09-05T08:35:09.432Z,45.30
2018-09-05T08:37:37.944Z,45.70
2018-09-05T08:40:05.900Z,46.20
2018-09-05T08:42:35.424Z,46.50
2018-09-05T08:45:04.121Z,46.80
2018-09-05T08:47:32.168Z,47.20
2018-09-05T08:50:00.974Z,47.30
2018-09-05T08:52:29.265Z,47.30
2018-09-05T08:54:57.910Z,47.10
2018-09-05T08:57:25.964Z,47.40
2018-09-05T08:59:54.686Z,47.80
2018-09-05T09:02:22.774Z,48.00
2018-09-05T09:04:51.367Z,48.20
2018-09-05T09:07:19.360Z,48.30
2018-09-05T09:09:47.400Z,48.70
2018-09-05T09:12:15.461Z,49.10
2018-09-05T09:14:43.529Z,49.50
2018-09-05T09:17:13.575Z,49.80
2018-09-05T09:19:41.624Z,50.00
2018-09-05T09:22:09.680Z,50.30
2018-09-05T09:24:37.737Z,49.40
2018-09-05T09:27:06.112Z,49.20
2018-09-05T09:29:34.686Z,49.50
2018-09-05T09:32:02.743Z,50.10
2018-09-05T09:34:31.230Z,50.60
2018-09-05T09:37:00.624Z,50.90
2018-09-05T09:39:29.295Z,51.30
2018-09-05T09:41:58.136Z,51.50
2018-09-05T09:44:26.205Z,51.80
2018-09-05T09:49:38.604Z,52.10
2018-09-05T09:52:12.105Z,52.10
2018-09-05T09:54:40.164Z,52.10
2018-09-05T09:57:08.224Z,52.50
2018-09-05T09:59:36.448Z,53.00
2018-09-05T10:02:10.097Z,53.20
2018-09-05T10:04:43.688Z,53.00
2018-09-05T10:07:17.485Z,52.60
2018-09-05T10:09:50.975Z,52.40
2018-09-05T10:12:24.521Z,51.10
2018-09-05T10:14:56.839Z,50.00
2018-09-05T10:17:33.554Z,49.30
2018-09-05T10:20:02.124Z,48.50
2018-09-05T10:22:30.570Z,47.80
2018-09-05T10:24:58.683Z,48.00
2018-09-05T10:27:27.559Z,48.20
2018-09-05T10:29:56.144Z,48.30
2018-09-05T10:32:24.753Z,48.20
2018-09-05T10:34:53.449Z,48.60
2018-09-05T10:37:21.545Z,49.30
2018-09-05T10:39:49.725Z,49.70
2018-09-05T10:42:17.836Z,50.30
2018-09-05T10:44:45.980Z,50.60
2018-09-05T10:47:14.042Z,50.70
2018-09-05T10:49:43.020Z,50.70
2018-09-05T10:52:11.149Z,51.00
2018-09-05T10:54:39.273Z,51.50
2018-09-05T10:57:07.977Z,51.60
2018-09-05T10:59:36.057Z,51.30
2018-09-05T11:02:04.213Z,51.80
2018-09-05T11:04:32.269Z,51.60
2018-09-05T11:07:00.315Z,51.60
2018-09-05T11:09:28.367Z,52.20
2018-09-05T11:11:56.449Z,52.80
2018-09-05T11:14:24.506Z,52.90
2018-09-05T11:16:52.725Z,53.00
2018-09-05T11:19:20.789Z,53.00
2018-09-05T11:21:49.193Z,53.00
2018-09-05T11:24:17.287Z,52.40
2018-09-05T11:26:45.466Z,50.90
2018-09-05T11:29:13.526Z,49.00
2018-09-05T11:31:41.641Z,48.10
2018-09-05T11:34:09.688Z,47.20
2018-09-05T11:36:37.998Z,46.00
2018-09-05T11:39:09.871Z,46.10
2018-09-05T11:41:37.985Z,46.30
2018-09-05T11:44:06.805Z,46.50
2018-09-05T11:46:35.015Z,46.30
2018-09-05T11:49:03.147Z,45.90
2018-09-05T11:51:31.233Z,45.70
2018-09-05T11:53:59.290Z,45.50
2018-09-05T11:56:27.352Z,45.30
2018-09-05T11:58:55.400Z,45.60
2018-09-05T12:01:24.520Z,45.70
2018-09-05T12:03:52.783Z,45.50
2018-09-05T12:06:21.013Z,45.20
2018-09-05T12:08:49.489Z,44.80
2018-09-05T12:11:17.629Z,44.10
2018-09-05T12:13:45.736Z,43.60
2018-09-05T12:16:14.066Z,43.30
2018-09-05T12:18:42.212Z,42.80
2018-09-05T12:21:10.436Z,41.80
2018-09-05T12:23:38.505Z,40.90
2018-09-05T12:26:06.566Z,40.50
2018-09-05T12:28:34.874Z,40.40
2018-09-05T12:31:02.924Z,40.40
2018-09-05T12:33:31.149Z,40.40
2018-09-05T12:35:59.218Z,40.30
2018-09-05T12:38:27.317Z,40.30
2018-09-05T12:40:55.323Z,40.10
2018-09-05T12:43:23.590Z,40.10
2018-09-05T12:45:51.637Z,40.00
2018-09-05T12:48:19.743Z,39.90
2018-09-05T12:50:47.768Z,39.70
2018-09-05T12:53:15.833Z,39.60
2018-09-05T12:55:44.264Z,39.50
2018-09-05T12:58:12.337Z,39.40
2018-09-05T13:00:40.388Z,38.90
2018-09-05T13:03:08.437Z,38.60
2018-09-05T13:05:36.561Z,38.50
2018-09-05T13:08:04.532Z,38.40
2018-09-05T13:10:33.029Z,38.30
2018-09-05T13:13:01.072Z,38.40
2018-09-05T13:15:29.133Z,38.40
2018-09-05T13:17:57.202Z,38.40
2018-09-05T13:20:25.413Z,38.50
2018-09-05T13:22:53.516Z,38.50
2018-09-05T13:25:21.537Z,38.40
2018-09-05T13:27:49.616Z,38.00
2018-09-05T13:30:17.667Z,37.50
2018-09-05T13:32:45.712Z,36.80
2018-09-05T13:35:13.769Z,36.30
2018-09-05T13:37:41.846Z,36.00
2018-09-05T13:40:09.986Z,35.70
2018-09-05T13:42:38.028Z,35.50
2018-09-05T13:45:06.145Z,35.20
2018-09-05T13:47:34.182Z,34.90
2018-09-05T13:50:02.490Z,34.80
2018-09-05T13:52:30.532Z,34.90
2018-09-05T13:54:58.624Z,34.80
2018-09-05T13:57:26.664Z,34.80
2018-09-05T13:59:54.720Z,35.10
2018-09-05T14:02:22.770Z,35.30
2018-09-05T14:04:50.820Z,35.10
2018-09-05T14:07:18.970Z,34.50
2018-09-05T14:09:47.363Z,34.20
2018-09-05T14:12:15.854Z,34.30
2018-09-05T14:14:44.052Z,34.30
2018-09-05T14:17:12.441Z,33.90
2018-09-05T14:19:40.491Z,33.50
2018-09-05T14:22:08.545Z,33.40
2018-09-05T14:24:36.610Z,33.30
2018-09-05T14:27:04.652Z,33.10
2018-09-05T14:29:32.721Z,33.20
2018-09-05T14:32:00.772Z,33.30
2018-09-05T14:34:28.924Z,33.40
2018-09-05T14:36:57.011Z,33.60
2018-09-05T14:39:25.058Z,33.70
2018-09-05T14:41:53.109Z,34.00
2018-09-05T14:44:21.181Z,34.40
2018-09-05T14:46:49.252Z,34.40
2018-09-05T14:49:17.293Z,34.60
2018-09-05T14:51:45.341Z,34.60
2018-09-05T14:54:13.506Z,34.40
2018-09-05T14:56:41.584Z,34.20
2018-09-05T14:59:09.620Z,34.10
2018-09-05T15:01:37.705Z,34.20
2018-09-05T15:04:05.769Z,34.30
2018-09-05T15:06:33.930Z,34.30
2018-09-05T15:09:02.318Z,34.20
2018-09-05T15:11:30.360Z,34.10
2018-09-05T15:13:58.411Z,34.00
2018-09-05T15:16:26.485Z,34.00
2018-09-05T15:18:54.528Z,34.00
2018-09-05T15:21:22.580Z,34.00
2018-09-05T15:23:50.636Z,34.00
2018-09-05T15:26:18.696Z,34.10
2018-09-05T15:28:46.796Z,34.00
2018-09-05T15:31:14.813Z,34.00
2018-09-05T15:33:42.869Z,33.90
2018-09-05T15:36:10.937Z,33.80
2018-09-05T15:38:38.985Z,33.80
2018-09-05T15:41:07.081Z,33.70
2018-09-05T15:43:35.133Z,33.60
2018-09-05T15:46:03.192Z,33.50
2018-09-05T15:48:31.384Z,33.30
2018-09-05T15:50:59.436Z,33.20
2018-09-05T15:53:27.512Z,33.10
2018-09-05T15:55:55.558Z,32.90
2018-09-05T15:58:23.602Z,32.90
2018-09-05T16:00:51.653Z,32.80
2018-09-05T16:03:19.716Z,32.60
2018-09-05T16:05:47.768Z,32.40
2018-09-05T16:08:15.836Z,32.20
2018-09-05T16:10:44.536Z,31.90
2018-09-05T16:13:12.565Z,31.80
2018-09-05T16:15:40.833Z,31.80
2018-09-05T16:18:08.691Z,31.70
2018-09-05T16:20:36.741Z,31.70
2018-09-05T16:23:04.797Z,31.60
2018-09-05T16:25:32.914Z,31.60
2018-09-05T16:28:00.964Z,31.50
2018-09-05T16:30:29.024Z,31.40
2018-09-05T16:32:57.089Z,31.20
2018-09-05T16:35:25.191Z,31.20
2018-09-05T16:37:53.234Z,31.10
2018-09-05T16:40:21.293Z,31.00
2018-09-05T16:42:49.336Z,31.00
2018-09-05T16:45:17.652Z,30.80
2018-09-05T16:47:45.708Z,30.70
2018-09-05T16:50:13.781Z,30.70
2018-09-05T16:52:41.831Z,30.60
2018-09-05T16:55:09.888Z,30.50
2018-09-05T16:57:37.957Z,30.50
2018-09-05T17:00:06.063Z,30.40
2018-09-05T17:02:34.115Z,30.30
2018-09-05T17:05:02.181Z,30.20
2018-09-05T17:07:30.247Z,30.00
2018-09-05T17:09:58.341Z,29.90
2018-09-05T17:12:26.405Z,29.80
2018-09-05T17:14:54.457Z,29.70
2018-09-05T17:17:22.520Z,29.60
2018-09-05T17:19:50.574Z,29.50
2018-09-05T17:22:18.712Z,29.30
2018-09-05T17:24:46.701Z,29.10
2018-09-05T17:27:15.180Z,29.00
2018-09-05T17:29:43.236Z,28.80
2018-09-05T17:32:11.297Z,28.70
2018-09-05T17:34:39.355Z,28.50
2018-09-05T17:37:07.524Z,28.30
2018-09-05T17:39:35.706Z,28.10
2018-09-05T17:42:03.775Z,27.90
2018-09-05T17:44:31.820Z,27.70
2018-09-05T17:46:59.880Z,27.60
2018-09-05T17:49:27.929Z,27.40
2018-09-05T17:51:56.013Z,27.20
2018-09-05T17:54:24.032Z,27.10
2018-09-05T17:56:52.093Z,26.90
2018-09-05T17:59:20.140Z,26.70
2018-09-05T18:01:48.201Z,26.60
2018-09-05T18:04:16.256Z,26.40
2018-09-05T18:06:44.317Z,26.20
2018-09-05T18:09:12.613Z,26.10
2018-09-05T18:11:41.759Z,25.90
2018-09-05T18:14:09.904Z,25.80
2018-09-05T18:16:37.961Z,25.70
2018-09-05T18:19:06.001Z,25.50
2018-09-05T18:21:34.062Z,25.40
2018-09-05T18:24:02.109Z,25.30
2018-09-05T18:26:30.165Z,25.10
2018-09-05T18:28:58.216Z,25.00
2018-09-05T18:31:26.290Z,24.90
2018-09-05T18:33:54.355Z,24.80
2018-09-05T18:36:22.411Z,24.70
2018-09-05T18:38:50.458Z,24.60
2018-09-05T18:41:18.522Z,24.50
2018-09-05T18:43:46.613Z,24.40
2018-09-05T18:46:14.692Z,24.30
2018-09-05T18:48:42.742Z,24.30
2018-09-05T18:51:10.788Z,24.20
2018-09-05T18:53:38.836Z,24.10
2018-09-05T18:56:06.908Z,24.00
2018-09-05T18:58:34.998Z,23.90
2018-09-05T19:01:03.060Z,23.80
2018-09-05T19:03:31.191Z,23.70
2018-09-05T19:05:59.224Z,23.60
2018-09-05T19:08:27.386Z,23.60
2018-09-05T19:10:55.308Z,23.40
2018-09-05T19:13:23.360Z,23.40
2018-09-05T19:15:51.421Z,23.30
2018-09-05T19:18:19.482Z,23.20
2018-09-05T19:20:47.528Z,23.10
2018-09-05T19:23:15.602Z,23.10
2018-09-05T19:25:43.640Z,23.00
2018-09-05T19:28:11.700Z,23.00
2018-09-05T19:30:39.772Z,22.90
2018-09-05T19:33:07.825Z,22.80
2018-09-05T19:35:35.938Z,22.80
2018-09-05T19:38:03.976Z,22.70
2018-09-05T19:40:32.024Z,22.70
2018-09-05T19:43:00.076Z,22.60
2018-09-05T19:45:28.136Z,22.60
2018-09-05T19:47:56.184Z,22.50
2018-09-05T19:50:24.289Z,22.40
2018-09-05T19:52:52.292Z,22.30
2018-09-05T19:55:20.337Z,22.30
2018-09-05T19:57:48.401Z,22.20
2018-09-05T20:00:17.036Z,22.10
2018-09-05T20:02:45.138Z,22.00
2018-09-05T20:05:13.623Z,22.00
2018-09-05T20:07:41.705Z,21.90
2018-09-05T20:10:09.761Z,21.80
2018-09-05T20:12:37.820Z,21.70
2018-09-05T20:15:05.906Z,21.70
2018-09-05T20:17:33.962Z,21.70
2018-09-05T20:20:02.006Z,21.60
2018-09-05T20:22:30.109Z,21.50
2018-09-05T20:24:58.145Z,21.50
2018-09-05T20:27:26.244Z,21.40
2018-09-05T20:29:54.518Z,21.30
2018-09-05T20:32:22.654Z,21.20
2018-09-05T20:34:50.698Z,21.20
2018-09-05T20:37:18.753Z,21.10
2018-09-05T20:39:46.796Z,21.00
2018-09-05T20:42:14.878Z,21.00
2018-09-05T20:44:42.919Z,20.90
2018-09-05T20:47:11.059Z,20.80
2018-09-05T20:49:39.108Z,20.70
2018-09-05T20:52:07.245Z,20.60
2018-09-05T20:54:35.260Z,20.50
2018-09-05T20:57:03.313Z,20.50
2018-09-05T20:59:31.383Z,20.40
2018-09-05T21:01:59.585Z,20.30
2018-09-05T21:04:27.736Z,20.30
2018-09-05T21:06:56.073Z,20.20
2018-09-05T21:09:24.129Z,20.20
2018-09-05T21:11:52.209Z,20.10
2018-09-05T21:14:20.287Z,20.10
2018-09-05T21:16:48.325Z,20.10
2018-09-05T21:19:16.392Z,20.10
2018-09-05T21:21:44.456Z,20.00
2018-09-05T21:24:12.536Z,20.00
2018-09-05T21:26:40.564Z,19.90
2018-09-05T21:29:08.620Z,19.90
2018-09-05T21:31:43.345Z,19.80
2018-09-05T21:34:11.384Z,19.80
2018-09-05T21:36:39.424Z,19.70
2018-09-05T21:39:08.466Z,19.70
2018-09-05T21:41:36.479Z,19.70
2018-09-05T21:44:04.571Z,19.60
2018-09-05T21:46:32.745Z,19.60
2018-09-05T21:49:00.797Z,19.60
2018-09-05T21:51:29.156Z,19.50
2018-09-05T21:53:57.209Z,19.50
2018-09-05T21:56:25.257Z,19.40
2018-09-05T21:58:53.308Z,19.40
2018-09-05T22:01:21.385Z,19.40
2018-09-05T22:03:51.229Z,19.30
2018-09-05T22:06:19.281Z,19.30
2018-09-05T22:08:47.344Z,19.20
2018-09-05T22:11:20.703Z,19.20
2018-09-05T22:13:48.951Z,19.20
2018-09-05T22:16:16.958Z,19.10
2018-09-05T22:18:45.043Z,19.10
2018-09-05T22:21:13.127Z,19.00
2018-09-05T22:23:41.212Z,19.00
2018-09-05T22:26:09.249Z,19.00
2018-09-05T22:28:37.301Z,18.90
2018-09-05T22:31:05.369Z,18.90
2018-09-05T22:33:33.421Z,18.90
2018-09-05T22:36:01.537Z,18.90
2018-09-05T22:38:29.561Z,18.80
2018-09-05T22:40:57.612Z,18.80
2018-09-05T22:43:37.789Z,18.70
2018-09-05T22:46:17.316Z,18.70
2018-09-05T22:49:11.628Z,18.60
2018-09-05T22:52:55.603Z,18.60
2018-09-05T22:55:42.190Z,18.50
2018-09-05T22:58:25.511Z,18.50
2018-09-05T23:01:07.064Z,18.40
2018-09-05T23:03:45.406Z,18.40
2018-09-05T23:06:22.694Z,18.40
2018-09-05T23:08:50.730Z,18.40
2018-09-05T23:11:30.273Z,18.50
2018-09-05T23:14:30.687Z,18.50
2018-09-05T23:19:16.556Z,18.50
2018-09-05T23:21:44.600Z,18.50
2018-09-05T23:24:12.771Z,18.30
2018-09-05T23:26:40.813Z,18.30
2018-09-05T23:29:08.871Z,18.30
2018-09-05T23:31:36.938Z,18.20
2018-09-05T23:34:05.023Z,18.20
2018-09-05T23:36:33.092Z,18.20
2018-09-05T23:39:01.117Z,18.20
2018-09-05T23:41:29.263Z,18.20
2018-09-05T23:43:57.289Z,18.20
2018-09-05T23:46:25.353Z,18.20
2018-09-05T23:48:53.415Z,18.20
2018-09-05T23:51:21.500Z,18.20
2018-09-05T23:53:49.586Z,18.20
2018-09-05T23:56:17.670Z,18.20
2018-09-05T23:58:45.702Z,18.20
